sensor_id;sensor_type;location;lat;lon;timestamp;pressure;altitude;pressure_sealevel;temperature;humidity
9307;BME280;4691;47.612;7.610;2023-04-12T00:02:02;97264.97;;;9.24;100.00
9307;BME280;4691;47.612;7.610;2023-04-12T00:04:28;97249.69;;;9.26;100.00
9307;BME280;4691;47.612;7.610;2023-04-12T00:06:54;97232.97;;;9.24;100.00
9307;BME280;4691;47.612;7.610;2023-04-12T00:09:20;97229.41;;;9.15;100.00
9307;BME280;4691;47.612;7.610;2023-04-12T00:11:46;97205.84;;;9.10;100.00
9307;BME280;4691;47.612;7.610;2023-04-12T00:14:11;97185.34;;;9.11;100.00
9307;BME280;4691;47.612;7.610;2023-04-12T00:16:37;97165.16;;;9.08;100.00
9307;BME280;4691;47.612;7.610;2023-04-12T00:19:03;97149.16;;;9.08;100.00
9307;BME280;4691;47.612;7.610;2023-04-12T00:21:28;97122.50;;;9.08;100.00
9307;BME280;4691;47.612;7.610;2023-04-12T00:23:54;97112.13;;;9.05;100.00
9307;BME280;4691;47.612;7.610;2023-04-12T00:26:20;97106.56;;;8.99;100.00
9307;BME280;4691;47.612;7.610;2023-04-12T00:28:46;97127.22;;;8.97;100.00
9307;BME280;4691;47.612;7.610;2023-04-12T00:31:12;97129.31;;;8.93;100.00
9307;BME280;4691;47.612;7.610;2023-04-12T00:33:37;97139.47;;;8.89;100.00
9307;BME280;4691;47.612;7.610;2023-04-12T00:36:02;97139.16;;;8.92;100.00
9307;BME280;4691;47.612;7.610;2023-04-12T00:38:28;97129.31;;;8.93;100.00
9307;BME280;4691;47.612;7.610;2023-04-12T00:40:53;97102.84;;;8.91;100.00
9307;BME280;4691;47.612;7.610;2023-04-12T00:43:18;97094.59;;;8.85;100.00
9307;BME280;4691;47.612;7.610;2023-04-12T00:45:47;97103.88;;;8.81;100.00
9307;BME280;4691;47.612;7.610;2023-04-12T00:48:13;97094.22;;;8.80;100.00
9307;BME280;4691;47.612;7.610;2023-04-12T00:50:40;97092.38;;;8.80;100.00
9307;BME280;4691;47.612;7.610;2023-04-12T00:53:05;97077.22;;;8.81;100.00
9307;BME280;4691;47.612;7.610;2023-04-12T00:55:33;97063.63;;;8.84;100.00
9307;BME280;4691;47.612;7.610;2023-04-12T00:58:00;97056.44;;;8.84;100.00
9307;BME280;4691;47.612;7.610;2023-04-12T01:00:25;97038.31;;;8.88;100.00
9307;BME280;4691;47.612;7.610;2023-04-12T01:02:51;97013.19;;;8.90;100.00
9307;BME280;4691;47.612;7.610;2023-04-12T01:05:20;97021.03;;;8.92;100.00
9307;BME280;4691;47.612;7.610;2023-04-12T01:13:46;96993.63;;;8.82;100.00
9307;BME280;4691;47.612;7.610;2023-04-12T01:19:03;96964.06;;;8.93;100.00
9307;BME280;4691;47.612;7.610;2023-04-12T01:21:31;96957.91;;;8.92;100.00
9307;BME280;4691;47.612;7.610;2023-04-12T01:24:07;96950.06;;;8.91;100.00
9307;BME280;4691;47.612;7.610;2023-04-12T01:26:46;96955.63;;;8.98;100.00
9307;BME280;4691;47.612;7.610;2023-04-12T01:29:20;96944.13;;;8.97;100.00
9307;BME280;4691;47.612;7.610;2023-04-12T01:31:56;96945.25;;;8.94;100.00
9307;BME280;4691;47.612;7.610;2023-04-12T01:34:24;96956.75;;;8.95;100.00
9307;BME280;4691;47.612;7.610;2023-04-12T01:36:51;96971.09;;;8.94;100.00
9307;BME280;4691;47.612;7.610;2023-04-12T01:39:17;96992.41;;;8.94;100.00
9307;BME280;4691;47.612;7.610;2023-04-12T01:41:42;97011.22;;;8.92;100.00
9307;BME280;4691;47.612;7.610;2023-04-12T01:44:13;97020.72;;;8.95;100.00
9307;BME280;4691;47.612;7.610;2023-04-12T01:46:38;97023.53;;;8.93;100.00
9307;BME280;4691;47.612;7.610;2023-04-12T01:49:04;97020.72;;;8.95;100.00
9307;BME280;4691;47.612;7.610;2023-04-12T01:51:49;97014.72;;;8.93;100.00
9307;BME280;4691;47.612;7.610;2023-04-12T01:54:21;96998.72;;;8.93;100.00
9307;BME280;4691;47.612;7.610;2023-04-12T01:56:53;96989.44;;;8.97;100.00
9307;BME280;4691;47.612;7.610;2023-04-12T01:59:22;96972.75;;;8.95;100.00
9307;BME280;4691;47.612;7.610;2023-04-12T02:01:50;96947.84;;;9.04;100.00
9307;BME280;4691;47.612;7.610;2023-04-12T02:04:16;96932.50;;;9.06;100.00
9307;BME280;4691;47.612;7.610;2023-04-12T02:06:43;96934.03;;;9.09;100.00
9307;BME280;4691;47.612;7.610;2023-04-12T02:09:10;96912.56;;;9.10;100.00
9307;BME280;4691;47.612;7.610;2023-04-12T02:11:36;96910.81;;;9.01;100.00
9307;BME280;4691;47.612;7.610;2023-04-12T02:14:01;96910.16;;;8.99;100.00
9307;BME280;4691;47.612;7.610;2023-04-12T02:19:30;96733.44;;;9.82;100.00
9307;BME280;4691;47.612;7.610;2023-04-12T02:21:56;96771.28;;;9.94;100.00
9307;BME280;4691;47.612;7.610;2023-04-12T02:24:22;96798.50;;;9.97;100.00
9307;BME280;4691;47.612;7.610;2023-04-12T02:26:47;96827.00;;;9.89;100.00
9307;BME280;4691;47.612;7.610;2023-04-12T02:29:14;96822.47;;;9.73;100.00
9307;BME280;4691;47.612;7.610;2023-04-12T02:31:39;96809.06;;;9.48;100.00
9307;BME280;4691;47.612;7.610;2023-04-12T02:34:05;96801.34;;;9.37;100.00
9307;BME280;4691;47.612;7.610;2023-04-12T02:36:31;96777.81;;;9.32;100.00
9307;BME280;4691;47.612;7.610;2023-04-12T02:38:56;96782.00;;;9.35;100.00
9307;BME280;4691;47.612;7.610;2023-04-12T02:41:23;96776.66;;;9.35;100.00
9307;BME280;4691;47.612;7.610;2023-04-12T02:43:48;96776.66;;;9.35;100.00
9307;BME280;4691;47.612;7.610;2023-04-12T02:46:17;96796.34;;;9.34;100.00
9307;BME280;4691;47.612;7.610;2023-04-12T02:48:44;96815.00;;;9.34;100.00
9307;BME280;4691;47.612;7.610;2023-04-12T02:51:09;96812.34;;;9.34;100.00
9307;BME280;4691;47.612;7.610;2023-04-12T02:53:34;96787.50;;;9.33;100.00
9307;BME280;4691;47.612;7.610;2023-04-12T02:55:59;96764.34;;;9.34;100.00
9307;BME280;4691;47.612;7.610;2023-04-12T02:58:25;96778.00;;;9.31;100.00
9307;BME280;4691;47.612;7.610;2023-04-12T03:00:51;96775.16;;;9.32;100.00
9307;BME280;4691;47.612;7.610;2023-04-12T03:03:17;96797.34;;;9.33;100.00
9307;BME280;4691;47.612;7.610;2023-04-12T03:05:42;96815.34;;;9.31;100.00
9307;BME280;4691;47.612;7.610;2023-04-12T03:08:12;96811.84;;;9.30;100.00
9307;BME280;4691;47.612;7.610;2023-04-12T03:10:37;96809.38;;;9.45;100.00
9307;BME280;4691;47.612;7.610;2023-04-12T03:13:03;96865.72;;;9.42;100.00
9307;BME280;4691;47.612;7.610;2023-04-12T03:15:29;96874.03;;;9.39;100.00
9307;BME280;4691;47.612;7.610;2023-04-12T03:17:54;96875.69;;;9.40;100.00
9307;BME280;4691;47.612;7.610;2023-04-12T03:20:19;96858.38;;;9.36;100.00
9307;BME280;4691;47.612;7.610;2023-04-12T03:22:45;96871.84;;;9.34;100.00
9307;BME280;4691;47.612;7.610;2023-04-12T03:25:10;96863.47;;;9.29;100.00
9307;BME280;4691;47.612;7.610;2023-04-12T03:27:36;96826.47;;;9.26;100.00
9307;BME280;4691;47.612;7.610;2023-04-12T03:30:02;96811.78;;;9.22;100.00
9307;BME280;4691;47.612;7.610;2023-04-12T03:32:28;96800.13;;;9.23;100.00
9307;BME280;4691;47.612;7.610;2023-04-12T03:34:53;96789.63;;;9.22;100.00
9307;BME280;4691;47.612;7.610;2023-04-12T03:37:19;96781.13;;;9.18;100.00
9307;BME280;4691;47.612;7.610;2023-04-12T03:39:45;96752.13;;;9.23;100.00
9307;BME280;4691;47.612;7.610;2023-04-12T03:42:12;96747.97;;;9.21;100.00
9307;BME280;4691;47.612;7.610;2023-04-12T03:44:37;96730.59;;;9.16;100.00
9307;BME280;4691;47.612;7.610;2023-04-12T03:47:03;96741.25;;;9.16;100.00
9307;BME280;4691;47.612;7.610;2023-04-12T03:49:28;96751.56;;;9.11;100.00
9307;BME280;4691;47.612;7.610;2023-04-12T03:51:54;96754.59;;;9.16;100.00
9307;BME280;4691;47.612;7.610;2023-04-12T03:54:21;96766.63;;;9.21;100.00
9307;BME280;4691;47.612;7.610;2023-04-12T03:56:47;96784.47;;;9.20;100.00
9307;BME280;4691;47.612;7.610;2023-04-12T03:59:12;96798.97;;;9.26;100.00
9307;BME280;4691;47.612;7.610;2023-04-12T04:01:39;96808.97;;;9.24;100.00
9307;BME280;4691;47.612;7.610;2023-04-12T04:04:05;96820.63;;;9.23;100.00
9307;BME280;4691;47.612;7.610;2023-04-12T04:06:31;96830.44;;;9.22;100.00
9307;BME280;4691;47.612;7.610;2023-04-12T04:08:57;96859.94;;;9.21;100.00
9307;BME280;4691;47.612;7.610;2023-04-12T04:11:23;96861.00;;;9.28;100.00
9307;BME280;4691;47.612;7.610;2023-04-12T04:13:49;96835.63;;;9.24;100.00
9307;BME280;4691;47.612;7.610;2023-04-12T04:16:14;96851.63;;;9.24;100.00
9307;BME280;4691;47.612;7.610;2023-04-12T04:18:39;96851.94;;;9.21;100.00
9307;BME280;4691;47.612;7.610;2023-04-12T04:21:05;96830.25;;;9.15;100.00
9307;BME280;4691;47.612;7.610;2023-04-12T04:23:31;96860.28;;;9.18;100.00
9307;BME280;4691;47.612;7.610;2023-04-12T04:26:06;96863.59;;;9.20;100.00
9307;BME280;4691;47.612;7.610;2023-04-12T04:28:38;96881.59;;;9.18;100.00
9307;BME280;4691;47.612;7.610;2023-04-12T04:31:04;96886.25;;;9.15;100.00
9307;BME280;4691;47.612;7.610;2023-04-12T04:33:33;96881.59;;;9.18;100.00
9307;BME280;4691;47.612;7.610;2023-04-12T04:35:58;96888.97;;;9.24;100.00
9307;BME280;4691;47.612;7.610;2023-04-12T04:38:24;96872.28;;;9.22;100.00
9307;BME280;4691;47.612;7.610;2023-04-12T04:40:50;96867.47;;;9.25;100.00
9307;BME280;4691;47.612;7.610;2023-04-12T04:43:19;96857.31;;;9.29;100.00
9307;BME280;4691;47.612;7.610;2023-04-12T04:45:46;96814.97;;;9.26;100.00
9307;BME280;4691;47.612;7.610;2023-04-12T04:48:14;96773.00;;;9.28;100.00
9307;BME280;4691;47.612;7.610;2023-04-12T04:50:40;96767.16;;;9.32;100.00
9307;BME280;4691;47.612;7.610;2023-04-12T04:53:06;96742.84;;;9.35;100.00
9307;BME280;4691;47.612;7.610;2023-04-12T04:55:31;96713.00;;;9.40;100.00
9307;BME280;4691;47.612;7.610;2023-04-12T04:57:56;96690.69;;;9.41;100.00
9307;BME280;4691;47.612;7.610;2023-04-12T05:00:22;96674.16;;;9.37;100.00
9307;BME280;4691;47.612;7.610;2023-04-12T05:02:49;96649.31;;;9.37;100.00
9307;BME280;4691;47.612;7.610;2023-04-12T05:05:15;96656.97;;;9.40;100.00
9307;BME280;4691;47.612;7.610;2023-04-12T05:07:41;96660.66;;;9.47;100.00
9307;BME280;4691;47.612;7.610;2023-04-12T05:10:09;96653.81;;;9.45;100.00
9307;BME280;4691;47.612;7.610;2023-04-12T05:12:38;96656.97;;;9.40;100.00
9307;BME280;4691;47.612;7.610;2023-04-12T05:15:03;96645.66;;;9.38;100.00
9307;BME280;4691;47.612;7.610;2023-04-12T05:17:29;96635.66;;;9.40;100.00
9307;BME280;4691;47.612;7.610;2023-04-12T05:19:54;96635.97;;;9.45;100.00
9307;BME280;4691;47.612;7.610;2023-04-12T05:22:20;96631.50;;;9.46;100.00
9307;BME280;4691;47.612;7.610;2023-04-12T05:24:49;96637.16;;;9.43;100.00
9307;BME280;4691;47.612;7.610;2023-04-12T05:27:14;96629.00;;;9.44;100.00
9307;BME280;4691;47.612;7.610;2023-04-12T05:29:43;96627.69;;;9.48;100.00
9307;BME280;4691;47.612;7.610;2023-04-12T05:32:09;96617.34;;;9.53;100.00
9307;BME280;4691;47.612;7.610;2023-04-12T05:34:34;96627.00;;;9.54;100.00
9307;BME280;4691;47.612;7.610;2023-04-12T05:37:01;96638.50;;;9.55;100.00
9307;BME280;4691;47.612;7.610;2023-04-12T05:39:27;96619.81;;;9.55;100.00
9307;BME280;4691;47.612;7.610;2023-04-12T05:41:52;96623.50;;;9.62;100.00
9307;BME280;4691;47.612;7.610;2023-04-12T05:44:18;96640.34;;;9.63;100.00
9307;BME280;4691;47.612;7.610;2023-04-12T05:46:43;96633.34;;;9.62;100.00
9307;BME280;4691;47.612;7.610;2023-04-12T05:49:09;96629.31;;;9.66;100.00
9307;BME280;4691;47.612;7.610;2023-04-12T05:51:34;96638.66;;;9.70;100.00
9307;BME280;4691;47.612;7.610;2023-04-12T05:54:00;96639.00;;;9.75;100.00
9307;BME280;4691;47.612;7.610;2023-04-12T05:56:25;96670.69;;;9.78;100.00
9307;BME280;4691;47.612;7.610;2023-04-12T05:58:51;96674.38;;;9.77;100.00
9307;BME280;4691;47.612;7.610;2023-04-12T06:01:16;96692.88;;;9.78;100.00
9307;BME280;4691;47.612;7.610;2023-04-12T06:03:43;96728.75;;;9.84;100.00
9307;BME280;4691;47.612;7.610;2023-04-12T06:06:08;96767.78;;;9.85;100.00
9307;BME280;4691;47.612;7.610;2023-04-12T06:08:35;96774.78;;;9.86;100.00
9307;BME280;4691;47.612;7.610;2023-04-12T06:11:02;96810.50;;;9.93;100.00
9307;BME280;4691;47.612;7.610;2023-04-12T06:13:27;96813.84;;;10.03;100.00
9307;BME280;4691;47.612;7.610;2023-04-12T06:15:52;96819.53;;;10.09;100.00
9307;BME280;4691;47.612;7.610;2023-04-12T06:18:18;96802.53;;;10.26;100.00
9307;BME280;4691;47.612;7.610;2023-04-12T06:20:43;96829.94;;;10.36;100.00
9307;BME280;4691;47.612;7.610;2023-04-12T06:23:08;96821.25;;;10.42;100.00
9307;BME280;4691;47.612;7.610;2023-04-12T06:25:34;96772.84;;;10.54;100.00
9307;BME280;4691;47.612;7.610;2023-04-12T06:27:59;96739.72;;;10.63;100.00
9307;BME280;4691;47.612;7.610;2023-04-12T06:30:24;96771.78;;;10.71;100.00
9307;BME280;4691;47.612;7.610;2023-04-12T06:32:50;96813.06;;;10.77;100.00
9307;BME280;4691;47.612;7.610;2023-04-12T06:35:15;96833.06;;;10.89;100.00
9307;BME280;4691;47.612;7.610;2023-04-12T06:37:41;96863.31;;;10.98;100.00
9307;BME280;4691;47.612;7.610;2023-04-12T06:40:07;96868.28;;;11.09;100.00
9307;BME280;4691;47.612;7.610;2023-04-12T06:42:32;96922.97;;;11.23;100.00
9307;BME280;4691;47.612;7.610;2023-04-12T06:44:57;96971.75;;;11.17;100.00
9307;BME280;4691;47.612;7.610;2023-04-12T06:47:23;97024.78;;;11.13;100.00
9307;BME280;4691;47.612;7.610;2023-04-12T06:49:49;97036.97;;;11.07;100.00
9307;BME280;4691;47.612;7.610;2023-04-12T06:52:17;97031.78;;;11.22;100.00
9307;BME280;4691;47.612;7.610;2023-04-12T06:54:42;97014.06;;;11.29;100.00
9307;BME280;4691;47.612;7.610;2023-04-12T06:57:08;97025.44;;;11.40;100.00
9307;BME280;4691;47.612;7.610;2023-04-12T06:59:35;97151.88;;;11.42;100.00
9307;BME280;4691;47.612;7.610;2023-04-12T07:02:00;97165.41;;;11.40;100.00
9307;BME280;4691;47.612;7.610;2023-04-12T07:04:25;97143.69;;;11.60;100.00
9307;BME280;4691;47.612;7.610;2023-04-12T07:06:51;97140.50;;;11.72;100.00
9307;BME280;4691;47.612;7.610;2023-04-12T07:09:16;97143.88;;;11.83;100.00
9307;BME280;4691;47.612;7.610;2023-04-12T07:11:41;97157.75;;;11.94;100.00
9307;BME280;4691;47.612;7.610;2023-04-12T07:14:07;97191.06;;;11.92;100.00
9307;BME280;4691;47.612;7.610;2023-04-12T07:16:32;97216.88;;;12.01;100.00
9307;BME280;4691;47.612;7.610;2023-04-12T07:18:58;97257.03;;;11.93;100.00
9307;BME280;4691;47.612;7.610;2023-04-12T07:21:24;97218.22;;;12.05;100.00
9307;BME280;4691;47.612;7.610;2023-04-12T07:23:50;97215.34;;;12.23;100.00
9307;BME280;4691;47.612;7.610;2023-04-12T07:26:16;97224.38;;;12.47;100.00
9307;BME280;4691;47.612;7.610;2023-04-12T07:28:42;97221.88;;;12.37;100.00
9307;BME280;4691;47.612;7.610;2023-04-12T07:31:08;97254.84;;;12.37;100.00
9307;BME280;4691;47.612;7.610;2023-04-12T07:33:36;97290.56;;;12.46;100.00
9307;BME280;4691;47.612;7.610;2023-04-12T07:36:02;97297.41;;;12.57;100.00
9307;BME280;4691;47.612;7.610;2023-04-12T07:38:28;97321.88;;;12.62;100.00
9307;BME280;4691;47.612;7.610;2023-04-12T07:40:54;97304.75;;;12.71;100.00
9307;BME280;4691;47.612;7.610;2023-04-12T07:43:20;97342.44;;;12.86;100.00
9307;BME280;4691;47.612;7.610;2023-04-12T07:45:45;97385.03;;;12.97;100.00
9307;BME280;4691;47.612;7.610;2023-04-12T07:48:11;97418.88;;;13.06;100.00
9307;BME280;4691;47.612;7.610;2023-04-12T07:50:36;97399.59;;;13.11;100.00
9307;BME280;4691;47.612;7.610;2023-04-12T07:53:18;97410.16;;;13.13;100.00
9307;BME280;4691;47.612;7.610;2023-04-12T07:55:44;97414.00;;;13.35;100.00
9307;BME280;4691;47.612;7.610;2023-04-12T07:58:10;97415.31;;;13.55;100.00
9307;BME280;4691;47.612;7.610;2023-04-12T08:04:03;97488.81;;;14.18;100.00
9307;BME280;4691;47.612;7.610;2023-04-12T08:06:29;97509.44;;;14.18;100.00
9307;BME280;4691;47.612;7.610;2023-04-12T08:08:55;97510.47;;;14.16;100.00
9307;BME280;4691;47.612;7.610;2023-04-12T08:11:20;97489.44;;;14.20;100.00
9307;BME280;4691;47.612;7.610;2023-04-12T08:13:46;97497.50;;;14.28;100.00
9307;BME280;4691;47.612;7.610;2023-04-12T08:16:11;97491.50;;;14.18;100.00
9307;BME280;4691;47.612;7.610;2023-04-12T08:18:37;97512.38;;;14.08;100.00
9307;BME280;4691;47.612;7.610;2023-04-12T08:21:02;97512.69;;;14.05;100.00
9307;BME280;4691;47.612;7.610;2023-04-12T08:23:28;97524.69;;;13.86;100.00
9307;BME280;4691;47.612;7.610;2023-04-12T08:25:53;97525.88;;;13.75;100.00
9307;BME280;4691;47.612;7.610;2023-04-12T08:28:26;97520.31;;;13.77;100.00
9307;BME280;4691;47.612;7.610;2023-04-12T08:30:52;97484.25;;;13.71;100.00
9307;BME280;4691;47.612;7.610;2023-04-12T08:33:18;97477.25;;;13.37;100.00
9307;BME280;4691;47.612;7.610;2023-04-12T08:35:43;97450.72;;;13.18;100.00
9307;BME280;4691;47.612;7.610;2023-04-12T08:38:09;97412.84;;;13.21;100.00
9307;BME280;4691;47.612;7.610;2023-04-12T08:40:34;97338.00;;;13.34;100.00
9307;BME280;4691;47.612;7.610;2023-04-12T08:43:00;97316.09;;;13.54;100.00
9307;BME280;4691;47.612;7.610;2023-04-12T08:45:28;97330.16;;;13.72;100.00
9307;BME280;4691;47.612;7.610;2023-04-12T08:47:54;97387.50;;;13.87;100.00
9307;BME280;4691;47.612;7.610;2023-04-12T08:50:19;97414.34;;;13.87;100.00
9307;BME280;4691;47.612;7.610;2023-04-12T08:52:47;97420.22;;;13.91;100.00
9307;BME280;4691;47.612;7.610;2023-04-12T08:55:13;97390.59;;;13.99;100.00
9307;BME280;4691;47.612;7.610;2023-04-12T08:57:40;97361.56;;;13.94;100.00
9307;BME280;4691;47.612;7.610;2023-04-12T09:00:06;97366.63;;;13.89;100.00
9307;BME280;4691;47.612;7.610;2023-04-12T09:02:34;97387.03;;;14.07;100.00
9307;BME280;4691;47.612;7.610;2023-04-12T09:05:00;97397.22;;;14.20;100.00
9307;BME280;4691;47.612;7.610;2023-04-12T09:07:25;97405.97;;;14.45;100.00
9307;BME280;4691;47.612;7.610;2023-04-12T09:09:52;97442.56;;;14.54;100.00
9307;BME280;4691;47.612;7.610;2023-04-12T09:12:17;97483.44;;;14.49;100.00
9307;BME280;4691;47.612;7.610;2023-04-12T09:14:46;97522.97;;;14.41;100.00
9307;BME280;4691;47.612;7.610;2023-04-12T09:17:26;97545.63;;;14.46;100.00
9307;BME280;4691;47.612;7.610;2023-04-12T09:19:52;97564.16;;;14.33;100.00
9307;BME280;4691;47.612;7.610;2023-04-12T09:22:31;97531.00;;;14.09;100.00
9307;BME280;4691;47.612;7.610;2023-04-12T09:24:57;97542.94;;;13.99;100.00
9307;BME280;4691;47.612;7.610;2023-04-12T09:27:22;97506.03;;;13.92;100.00
9307;BME280;4691;47.612;7.610;2023-04-12T09:29:49;97498.97;;;13.91;100.00
9307;BME280;4691;47.612;7.610;2023-04-12T09:32:23;97453.47;;;13.90;100.00
9307;BME280;4691;47.612;7.610;2023-04-12T09:34:56;97466.28;;;13.80;100.00
9307;BME280;4691;47.612;7.610;2023-04-12T09:37:22;97500.03;;;13.66;100.00
9307;BME280;4691;47.612;7.610;2023-04-12T09:39:58;97488.78;;;13.70;100.00
9307;BME280;4691;47.612;7.610;2023-04-12T09:42:24;97490.25;;;13.81;100.00
9307;BME280;4691;47.612;7.610;2023-04-12T09:44:50;97502.41;;;13.61;100.00
9307;BME280;4691;47.612;7.610;2023-04-12T09:47:15;97502.06;;;13.56;100.00
9307;BME280;4691;47.612;7.610;2023-04-12T09:49:42;97492.69;;;13.60;100.00
9307;BME280;4691;47.612;7.610;2023-04-12T09:52:10;97505.38;;;13.74;100.00
9307;BME280;4691;47.612;7.610;2023-04-12T09:54:47;97539.31;;;13.75;100.00
9307;BME280;4691;47.612;7.610;2023-04-12T09:57:16;97551.91;;;13.66;100.00
9307;BME280;4691;47.612;7.610;2023-04-12T09:59:43;97554.78;;;13.48;100.00
9307;BME280;4691;47.612;7.610;2023-04-12T10:02:16;97530.97;;;13.37;100.00
9307;BME280;4691;47.612;7.610;2023-04-12T10:04:43;97512.00;;;13.39;100.00
9307;BME280;4691;47.612;7.610;2023-04-12T10:07:08;97513.50;;;13.33;100.00
9307;BME280;4691;47.612;7.610;2023-04-12T10:09:36;97489.66;;;13.14;100.00
9307;BME280;4691;47.612;7.610;2023-04-12T10:12:02;97456.31;;;13.08;100.00
9307;BME280;4691;47.612;7.610;2023-04-12T10:14:29;97406.50;;;12.73;100.00
9307;BME280;4691;47.612;7.610;2023-04-12T10:17:00;97343.16;;;12.55;100.00
9307;BME280;4691;47.612;7.610;2023-04-12T10:19:27;97264.56;;;12.47;100.00
9307;BME280;4691;47.612;7.610;2023-04-12T10:21:56;97237.59;;;12.40;100.00
9307;BME280;4691;47.612;7.610;2023-04-12T10:24:22;97285.19;;;12.46;100.00
9307;BME280;4691;47.612;7.610;2023-04-12T10:26:49;97300.09;;;12.49;100.00
9307;BME280;4691;47.612;7.610;2023-04-12T10:29:27;97307.63;;;12.53;100.00
9307;BME280;4691;47.612;7.610;2023-04-12T10:31:58;97296.06;;;12.69;100.00
9307;BME280;4691;47.612;7.610;2023-04-12T10:34:41;97332.06;;;12.91;100.00
9307;BME280;4691;47.612;7.610;2023-04-12T10:37:06;97352.00;;;13.05;100.00
9307;BME280;4691;47.612;7.610;2023-04-12T10:39:38;97371.56;;;13.22;100.00
9307;BME280;4691;47.612;7.610;2023-04-12T10:42:24;97405.09;;;13.42;100.00
9307;BME280;4691;47.612;7.610;2023-04-12T10:44:51;97439.63;;;13.62;100.00
9307;BME280;4691;47.612;7.610;2023-04-12T10:50:21;97469.56;;;13.98;100.00
9307;BME280;4691;47.612;7.610;2023-04-12T10:55:43;97509.69;;;14.08;100.00
9307;BME280;4691;47.612;7.610;2023-04-12T10:58:09;97510.66;;;14.07;100.00
9307;BME280;4691;47.612;7.610;2023-04-12T11:01:09;97503.91;;;14.19;100.00
9307;BME280;4691;47.612;7.610;2023-04-12T11:03:35;97512.19;;;14.41;100.00
9307;BME280;4691;47.612;7.610;2023-04-12T11:06:01;97510.25;;;14.66;100.00
9307;BME280;4691;47.612;7.610;2023-04-12T11:08:28;97512.53;;;14.77;100.00
9307;BME280;4691;47.612;7.610;2023-04-12T11:11:01;97522.09;;;14.79;100.00
9307;BME280;4691;47.612;7.610;2023-04-12T11:13:28;97514.34;;;14.85;100.00
9307;BME280;4691;47.612;7.610;2023-04-12T11:16:03;97533.84;;;14.87;100.00
9307;BME280;4691;47.612;7.610;2023-04-12T11:18:29;97535.63;;;14.94;100.00
9307;BME280;4691;47.612;7.610;2023-04-12T11:20:57;97530.75;;;14.98;100.00
9307;BME280;4691;47.612;7.610;2023-04-12T11:23:22;97535.47;;;15.19;100.00
9307;BME280;4691;47.612;7.610;2023-04-12T11:25:51;97533.25;;;15.22;100.00
9307;BME280;4691;47.612;7.610;2023-04-12T11:28:17;97539.59;;;15.30;100.00
9307;BME280;4691;47.612;7.610;2023-04-12T11:33:32;97540.59;;;15.52;100.00
9307;BME280;4691;47.612;7.610;2023-04-12T11:35:57;97537.47;;;15.63;100.00
9307;BME280;4691;47.612;7.610;2023-04-12T11:38:23;97535.13;;;15.83;100.00
9307;BME280;4691;47.612;7.610;2023-04-12T11:40:48;97517.44;;;15.95;100.00
9307;BME280;4691;47.612;7.610;2023-04-12T11:43:20;97538.84;;;16.11;100.00
9307;BME280;4691;47.612;7.610;2023-04-12T11:45:46;97541.63;;;16.18;100.00
9307;BME280;4691;47.612;7.610;2023-04-12T11:48:11;97540.00;;;16.53;100.00
9307;BME280;4691;47.612;7.610;2023-04-12T11:50:37;97551.34;;;16.64;100.00
9307;BME280;4691;47.612;7.610;2023-04-12T11:53:11;97543.00;;;16.44;100.00
9307;BME280;4691;47.612;7.610;2023-04-12T11:55:36;97554.44;;;16.61;100.00
9307;BME280;4691;47.612;7.610;2023-04-12T11:58:02;97546.31;;;16.90;100.00
9307;BME280;4691;47.612;7.610;2023-04-12T12:00:27;97543.88;;;17.17;100.00
9307;BME280;4691;47.612;7.610;2023-04-12T12:02:55;97546.75;;;17.15;100.00
9307;BME280;4691;47.612;7.610;2023-04-12T12:05:20;97561.53;;;17.34;100.00
9307;BME280;4691;47.612;7.610;2023-04-12T12:07:46;97550.56;;;17.42;100.00
9307;BME280;4691;47.612;7.610;2023-04-12T12:10:11;97564.97;;;17.50;100.00
9307;BME280;4691;47.612;7.610;2023-04-12T12:12:37;97547.34;;;17.32;100.00
9307;BME280;4691;47.612;7.610;2023-04-12T12:15:02;97560.91;;;17.17;100.00
9307;BME280;4691;47.612;7.610;2023-04-12T12:17:28;97556.66;;;17.08;100.00
9307;BME280;4691;47.612;7.610;2023-04-12T12:19:55;97553.25;;;17.00;100.00
9307;BME280;4691;47.612;7.610;2023-04-12T12:22:21;97555.19;;;17.06;100.00
9307;BME280;4691;47.612;7.610;2023-04-12T12:24:58;97555.97;;;17.21;100.00
9307;BME280;4691;47.612;7.610;2023-04-12T12:27:32;97553.50;;;17.26;100.00
9307;BME280;4691;47.612;7.610;2023-04-12T12:30:00;97560.56;;;17.42;100.00
9307;BME280;4691;47.612;7.610;2023-04-12T12:32:31;97541.84;;;17.69;100.00
9307;BME280;4691;47.612;7.610;2023-04-12T12:34:57;97555.94;;;17.64;100.00
9307;BME280;4691;47.612;7.610;2023-04-12T12:37:24;97558.28;;;17.46;100.00
9307;BME280;4691;47.612;7.610;2023-04-12T12:40:09;97574.47;;;17.67;100.00
9307;BME280;4691;47.612;7.610;2023-04-12T12:42:43;97559.28;;;17.66;100.00
9307;BME280;4691;47.612;7.610;2023-04-12T12:45:09;97551.19;;;17.66;100.00
9307;BME280;4691;47.612;7.610;2023-04-12T12:47:45;97537.84;;;17.86;100.00
9307;BME280;4691;47.612;7.610;2023-04-12T12:50:10;97536.66;;;17.46;100.00
9307;BME280;4691;47.612;7.610;2023-04-12T12:52:38;97542.97;;;17.53;100.00
9307;BME280;4691;47.612;7.610;2023-04-12T12:55:04;97521.75;;;17.50;100.00
9307;BME280;4691;47.612;7.610;2023-04-12T12:57:29;97551.97;;;17.38;100.00
9307;BME280;4691;47.612;7.610;2023-04-12T12:59:55;97539.03;;;17.34;100.00
9307;BME280;4691;47.612;7.610;2023-04-12T13:02:21;97551.84;;;17.25;100.00
9307;BME280;4691;47.612;7.610;2023-04-12T13:04:46;97545.31;;;17.34;100.00
9307;BME280;4691;47.612;7.610;2023-04-12T13:07:11;97553.06;;;17.23;100.00
9307;BME280;4691;47.612;7.610;2023-04-12T13:09:36;97554.56;;;17.04;100.00
9307;BME280;4691;47.612;7.610;2023-04-12T13:12:02;97559.44;;;17.15;100.00
9307;BME280;4691;47.612;7.610;2023-04-12T13:14:28;97550.50;;;17.14;100.00
9307;BME280;4691;47.612;7.610;2023-04-12T13:16:53;97552.88;;;17.03;100.00
9307;BME280;4691;47.612;7.610;2023-04-12T13:19:18;97562.19;;;17.00;100.00
9307;BME280;4691;47.612;7.610;2023-04-12T13:21:44;97567.00;;;16.83;100.00
9307;BME280;4691;47.612;7.610;2023-04-12T13:24:09;97572.66;;;16.88;100.00
9307;BME280;4691;47.612;7.610;2023-04-12T13:26:34;97585.31;;;16.73;100.00
9307;BME280;4691;47.612;7.610;2023-04-12T13:28:59;97586.53;;;16.41;100.00
9307;BME280;4691;47.612;7.610;2023-04-12T13:31:25;97586.06;;;16.07;100.00
9307;BME280;4691;47.612;7.610;2023-04-12T13:33:51;97568.66;;;15.80;100.00
9307;BME280;4691;47.612;7.610;2023-04-12T13:36:16;97567.50;;;15.75;100.00
9307;BME280;4691;47.612;7.610;2023-04-12T13:38:41;97557.63;;;15.67;100.00